Time;durP1;ratioP1;P1;durP2;ratioP2;P2;SDS_P1;SDS_P2;PMS_P1;PMS_P2;Temp;Humidity;BMP_temperature;BMP_pressure;BME280_temperature;BME280_humidity;BME280_pressure;Samples;Min_cycle;Max_cycle;Signal;HPM_P1;HPM_P2
2022/08/06 00:01:49;;;;;;;3.95;0.68;;;8.90;99.90;;;;;;5007297;28;20093;-38
2022/08/06 00:04:15;;;;;;;1.50;0.50;;;8.80;99.90;;;;;;5007209;28;20151;-38
2022/08/06 00:06:41;;;;;;;4.40;0.95;;;9.30;99.90;;;;;;5007069;28;20056;-38
2022/08/06 00:09:07;;;;;;;4.18;1.00;;;8.80;99.90;;;;;;5007483;28;20042;-38
2022/08/06 00:11:33;;;;;;;3.88;0.77;;;8.80;99.90;;;;;;5007611;28;20081;-38
2022/08/06 00:13:58;;;;;;;3.15;0.75;;;8.80;99.90;;;;;;5007657;28;20121;-38
2022/08/06 00:16:24;;;;;;;3.83;0.80;;;9.40;99.90;;;;;;5007993;28;20480;-38
2022/08/06 00:18:50;;;;;;;5.88;1.10;;;8.70;99.90;;;;;;5008263;28;20058;-38
2022/08/06 00:21:16;;;;;;;2.58;1.00;;;8.60;99.90;;;;;;5007786;28;20120;-38
2022/08/06 00:23:41;;;;;;;3.72;0.88;;;8.60;99.90;;;;;;5008012;28;20104;-38
2022/08/06 00:26:07;;;;;;;3.05;1.13;;;9.30;99.90;;;;;;5007749;28;20042;-38
2022/08/06 00:28:33;;;;;;;5.65;1.40;;;8.50;99.90;;;;;;5007692;28;20042;-38
2022/08/06 00:31:03;;;;;;;3.90;0.93;;;8.40;99.90;;;;;;5008104;28;20041;-38
2022/08/06 00:33:30;;;;;;;4.93;1.38;;;8.50;99.90;;;;;;5007646;28;20053;-38
2022/08/06 00:35:55;;;;;;;7.50;1.20;;;8.90;99.90;;;;;;5008136;28;20104;-38
2022/08/06 00:38:21;;;;;;;2.80;1.30;;;8.40;99.90;;;;;;5007751;28;20049;-38
2022/08/06 00:40:48;;;;;;;5.78;1.50;;;8.40;99.90;;;;;;5007594;28;20050;-38
2022/08/06 00:43:14;;;;;;;4.47;1.40;;;8.40;99.90;;;;;;5005518;28;20046;-38
2022/08/06 00:45:40;;;;;;;4.10;1.50;;;8.90;99.90;;;;;;5007320;28;20042;-38
2022/08/06 00:48:05;;;;;;;4.13;1.63;;;8.40;99.90;;;;;;5007506;28;20044;-38
2022/08/06 00:50:31;;;;;;;3.60;2.05;;;8.30;99.90;;;;;;5006027;28;20103;-38
2022/08/06 00:53:00;;;;;;;3.78;1.30;;;8.30;99.90;;;;;;5007130;28;20050;-38
2022/08/06 00:55:27;;;;;;;6.90;1.50;;;8.90;99.90;;;;;;5007078;28;20050;-38
2022/08/06 00:57:52;;;;;;;3.28;1.33;;;8.30;99.90;;;;;;5007126;28;20038;-38
2022/08/06 01:00:18;;;;;;;3.05;1.13;;;8.20;99.90;;;;;;5007217;28;20560;-38
2022/08/06 01:02:44;;;;;;;3.33;1.00;;;8.20;99.90;;;;;;5006907;28;20046;-38
2022/08/06 01:05:10;;;;;;;2.80;1.40;;;8.20;99.90;;;;;;5006549;28;20124;-38
2022/08/06 01:07:35;;;;;;;3.58;1.30;;;8.10;99.90;;;;;;5006748;28;20042;-38
2022/08/06 01:10:01;;;;;;;5.97;1.40;;;8.50;99.90;;;;;;5007072;28;20042;-38
2022/08/06 01:12:27;;;;;;;2.38;1.10;;;8.00;99.90;;;;;;5006469;28;20041;-38
2022/08/06 01:14:53;;;;;;;4.80;1.20;;;8.00;99.90;;;;;;5006691;28;20057;-38
2022/08/06 01:17:37;;;;;;;5.20;1.42;;;8.00;99.90;;;;;;5006959;28;20416;-38
2022/08/06 01:20:14;;;;;;;3.55;1.40;;;8.00;99.90;;;;;;5007031;28;20044;-38
2022/08/06 01:23:02;;;;;;;5.30;1.30;;;7.90;99.90;;;;;;5007336;28;20052;-38
2022/08/06 01:26:01;;;;;;;3.88;1.60;;;8.00;99.90;;;;;;5007157;28;20057;-38
2022/08/06 01:28:33;;;;;;;3.05;1.50;;;8.00;99.90;;;;;;5007156;28;20046;-39
2022/08/06 01:31:15;;;;;;;4.47;1.48;;;8.00;99.90;;;;;;5007106;28;20041;-39
2022/08/06 01:33:52;;;;;;;3.67;1.65;;;8.80;99.90;;;;;;5006719;28;20089;-38
2022/08/06 01:36:23;;;;;;;5.00;1.58;;;7.90;99.90;;;;;;5006583;28;20052;-38
2022/08/06 01:38:52;;;;;;;4.93;1.70;;;7.90;99.90;;;;;;5006658;28;20049;-39
2022/08/06 01:41:40;;;;;;;4.18;1.65;;;8.00;99.90;;;;;;5006344;28;20053;-38
2022/08/06 01:44:09;;;;;;;5.50;1.73;;;8.00;99.90;;;;;;5006771;28;20395;-38
2022/08/06 01:46:42;;;;;;;3.17;1.73;;;7.90;99.90;;;;;;5006433;28;20042;-38
2022/08/06 01:49:09;;;;;;;3.53;1.50;;;8.80;99.90;;;;;;5006693;28;20077;-39
2022/08/06 01:51:36;;;;;;;3.15;1.42;;;7.80;99.90;;;;;;5006590;28;20049;-38
2022/08/06 01:54:06;;;;;;;5.72;1.98;;;7.80;99.90;;;;;;5006291;28;20512;-38
2022/08/06 01:56:33;;;;;;;3.05;1.50;;;7.80;99.90;;;;;;5006315;28;20034;-38
2022/08/06 01:59:01;;;;;;;7.18;2.00;;;8.20;99.90;;;;;;5006729;28;20045;-38
2022/08/06 02:01:29;;;;;;;3.97;2.00;;;7.80;99.90;;;;;;5006710;28;20046;-39
2022/08/06 02:03:57;;;;;;;4.22;1.88;;;7.80;99.90;;;;;;5006653;28;20052;-38
2022/08/06 02:06:31;;;;;;;5.63;1.98;;;8.00;99.90;;;;;;5006597;28;20052;-38
2022/08/06 02:09:01;;;;;;;2.80;1.30;;;7.80;99.90;;;;;;5006405;28;20407;-39
2022/08/06 02:11:27;;;;;;;6.00;1.88;;;7.80;99.90;;;;;;5006805;28;20097;-38
2022/08/06 02:13:54;;;;;;;4.28;1.63;;;7.80;99.90;;;;;;5004789;28;20046;-39
2022/08/06 02:16:22;;;;;;;3.80;1.92;;;7.80;99.90;;;;;;5005916;28;20066;-38
2022/08/06 02:18:50;;;;;;;4.43;2.03;;;7.80;99.90;;;;;;5010335;28;20120;-38
2022/08/06 02:21:20;;;;;;;5.88;2.20;;;7.80;99.90;;;;;;5010284;28;20045;-38
2022/08/06 02:23:48;;;;;;;6.13;2.67;;;7.80;99.90;;;;;;5010160;28;20034;-38
2022/08/06 02:26:15;;;;;;;6.75;2.10;;;8.60;99.90;;;;;;5010364;28;20814;-38
2022/08/06 02:28:42;;;;;;;4.07;2.00;;;7.80;99.90;;;;;;5009909;28;20125;-38
2022/08/06 02:31:08;;;;;;;5.10;1.98;;;7.90;99.90;;;;;;5010154;28;20103;-38
2022/08/06 02:33:34;;;;;;;6.95;1.50;;;7.80;99.90;;;;;;5010204;28;20092;-38
2022/08/06 02:36:28;;;;;;;4.03;1.98;;;7.80;99.90;;;;;;5010503;28;20050;-38
2022/08/06 02:39:14;;;;;;;4.82;1.50;;;7.80;99.90;;;;;;5010665;28;20044;-38
2022/08/06 02:41:47;;;;;;;7.25;2.05;;;7.70;99.90;;;;;;5010144;28;20129;-38
2022/08/06 02:44:20;;;;;;;5.07;2.00;;;7.70;99.90;;;;;;5009733;28;20038;-40
2022/08/06 02:47:12;;;;;;;5.03;2.50;;;7.70;99.90;;;;;;5009900;28;20077;-38
2022/08/06 02:49:42;;;;;;;5.50;1.92;;;7.70;99.90;;;;;;5007274;28;20041;-39
2022/08/06 02:52:26;;;;;;;6.07;1.90;;;7.70;99.90;;;;;;5010306;28;20092;-39
2022/08/06 02:55:05;;;;;;;6.93;2.10;;;7.80;99.90;;;;;;5010150;28;20046;-39
2022/08/06 02:57:39;;;;;;;3.75;1.80;;;7.80;99.90;;;;;;5010039;28;20046;-38
2022/08/06 03:00:07;;;;;;;5.65;2.65;;;7.80;99.90;;;;;;5008689;28;20458;-38
2022/08/06 03:02:36;;;;;;;7.13;1.77;;;7.80;99.90;;;;;;5009560;28;20042;-38
2022/08/06 03:05:06;;;;;;;6.85;2.08;;;7.80;99.90;;;;;;5009734;28;20037;-38
2022/08/06 03:07:33;;;;;;;4.60;1.90;;;7.90;99.90;;;;;;5009326;28;20703;-38
2022/08/06 03:10:01;;;;;;;4.75;2.08;;;7.80;99.90;;;;;;5009319;28;20936;-38
2022/08/06 03:12:27;;;;;;;5.47;2.25;;;7.80;99.90;;;;;;5009397;28;20053;-38
2022/08/06 03:14:54;;;;;;;5.82;2.00;;;7.80;99.90;;;;;;5009059;28;20062;-38
2022/08/06 03:17:21;;;;;;;5.47;2.03;;;7.80;99.90;;;;;;5008029;28;20472;-38
2022/08/06 03:19:49;;;;;;;5.13;2.05;;;7.80;99.90;;;;;;5008998;28;20045;-38
2022/08/06 03:22:16;;;;;;;6.57;2.13;;;7.80;99.90;;;;;;5008871;28;20092;-38
2022/08/06 03:24:44;;;;;;;6.40;2.70;;;8.10;99.90;;;;;;5008786;28;20053;-38
2022/08/06 03:27:11;;;;;;;5.57;2.25;;;7.80;99.90;;;;;;5008997;28;20050;-38
2022/08/06 03:29:42;;;;;;;6.88;2.25;;;8.60;99.90;;;;;;5007611;28;20042;-38
2022/08/06 03:32:08;;;;;;;5.22;1.95;;;7.80;99.90;;;;;;5009031;28;20054;-38
2022/08/06 03:34:35;;;;;;;5.68;1.92;;;7.80;99.90;;;;;;5009387;28;20045;-38
2022/08/06 03:37:03;;;;;;;6.65;2.80;;;7.80;99.90;;;;;;5009465;28;20466;-38
2022/08/06 03:39:32;;;;;;;5.00;2.42;;;7.80;99.90;;;;;;5009145;28;20042;-38
2022/08/06 03:41:57;;;;;;;5.03;2.58;;;7.70;99.90;;;;;;5008619;28;20129;-38
2022/08/06 03:44:23;;;;;;;3.38;2.65;;;7.50;99.90;;;;;;5008485;28;20120;-38
2022/08/06 03:46:59;;;;;;;6.97;2.88;;;8.50;99.90;;;;;;5008293;28;20037;-38
2022/08/06 03:49:48;;;;;;;4.88;2.97;;;7.80;99.90;;;;;;5008736;28;20097;-38
2022/08/06 03:52:19;;;;;;;8.60;2.40;;;8.70;99.90;;;;;;5008605;28;20084;-38
2022/08/06 03:54:49;;;;;;;7.15;2.50;;;8.70;99.90;;;;;;5008442;28;20053;-38
2022/08/06 03:57:19;;;;;;;7.63;3.13;;;7.80;99.90;;;;;;5009072;28;20049;-38
2022/08/06 03:59:48;;;;;;;4.82;2.42;;;7.80;99.90;;;;;;5008950;28;20206;-38
2022/08/06 04:02:16;;;;;;;4.65;2.15;;;7.80;99.90;;;;;;5008887;28;20049;-38
2022/08/06 04:04:43;;;;;;;6.57;2.78;;;8.50;99.90;;;;;;5008370;28;20483;-38
2022/08/06 04:07:10;;;;;;;4.25;2.63;;;7.60;99.90;;;;;;5008102;28;20049;-38
2022/08/06 04:09:36;;;;;;;8.05;2.53;;;7.80;99.90;;;;;;5008026;28;20034;-38
2022/08/06 04:12:03;;;;;;;4.07;3.10;;;8.50;99.90;;;;;;5007909;28;20050;-38
2022/08/06 04:14:30;;;;;;;3.17;2.38;;;7.80;99.90;;;;;;5008097;28;20084;-38
2022/08/06 04:16:57;;;;;;;5.63;2.95;;;7.80;99.90;;;;;;5008044;28;20085;-38
2022/08/06 04:19:23;;;;;;;5.03;2.90;;;7.80;99.90;;;;;;5008092;28;20104;-38
2022/08/06 04:21:49;;;;;;;11.07;2.45;;;8.40;99.90;;;;;;5007973;28;20057;-38
2022/08/06 04:24:15;;;;;;;3.88;2.65;;;7.80;99.90;;;;;;5008130;28;20037;-38
2022/08/06 04:26:43;;;;;;;5.13;2.80;;;7.90;99.90;;;;;;5007982;28;20135;-38
2022/08/06 04:29:11;;;;;;;4.93;2.85;;;8.80;99.90;;;;;;5008016;28;20042;-38
2022/08/06 04:31:38;;;;;;;4.68;2.28;;;7.80;99.90;;;;;;5007699;28;20050;-38
2022/08/06 04:34:05;;;;;;;6.65;3.05;;;7.90;99.90;;;;;;5008040;28;20049;-38
2022/08/06 04:36:32;;;;;;;7.55;3.60;;;8.80;99.90;;;;;;5008078;28;20460;-38
2022/08/06 04:38:58;;;;;;;5.47;2.65;;;8.00;99.90;;;;;;5007367;28;20060;-38
2022/08/06 04:41:24;;;;;;;8.10;2.72;;;8.00;99.90;;;;;;5007054;28;20045;-38
2022/08/06 04:43:51;;;;;;;5.97;2.80;;;8.10;99.90;;;;;;5007288;28;20088;-38
2022/08/06 04:46:17;;;;;;;3.90;2.67;;;8.00;99.90;;;;;;5007350;28;20540;-38
2022/08/06 04:48:43;;;;;;;3.58;2.85;;;8.20;99.90;;;;;;5007238;28;20141;-38
2022/08/06 04:51:11;;;;;;;5.60;3.30;;;8.60;99.90;;;;;;5006417;28;20058;-38
2022/08/06 04:53:39;;;;;;;6.30;3.63;;;9.00;99.90;;;;;;5007963;28;20046;-38
2022/08/06 04:56:06;;;;;;;8.02;3.95;;;8.40;99.90;;;;;;5007838;28;20187;-38
2022/08/06 04:58:32;;;;;;;5.72;2.95;;;8.40;99.90;;;;;;5007635;28;20128;-38
2022/08/06 05:00:57;;;;;;;5.25;3.42;;;8.50;99.90;;;;;;5006027;28;20403;-38
2022/08/06 05:03:23;;;;;;;8.90;4.13;;;8.60;99.90;;;;;;5007346;28;20042;-38
2022/08/06 05:06:03;;;;;;;5.85;3.35;;;8.70;99.90;;;;;;5007085;28;20506;-38
2022/08/06 05:08:31;;;;;;;7.10;3.58;;;8.70;99.90;;;;;;5007018;28;20488;-38
2022/08/06 05:11:02;;;;;;;7.70;2.72;;;8.80;99.90;;;;;;5007140;28;20046;-38
2022/08/06 05:13:33;;;;;;;5.90;3.17;;;8.90;99.90;;;;;;5007078;28;20061;-38
2022/08/06 05:16:03;;;;;;;5.85;3.33;;;9.00;99.90;;;;;;5006635;28;20065;-39
2022/08/06 05:18:49;;;;;;;8.80;3.20;;;9.20;99.90;;;;;;5007098;28;20037;-38
2022/08/06 05:21:21;;;;;;;4.57;2.95;;;9.30;99.90;;;;;;5006901;28;20088;-38
2022/08/06 05:23:49;;;;;;;5.43;1.83;;;9.50;99.90;;;;;;5006714;28;20415;-38
2022/08/06 05:26:16;;;;;;;5.63;2.53;;;9.70;99.90;;;;;;5006913;28;20124;-39
2022/08/06 05:28:42;;;;;;;4.00;2.15;;;10.00;99.90;;;;;;5007233;28;20042;-38
2022/08/06 05:31:09;;;;;;;3.17;1.92;;;10.70;99.90;;;;;;5007251;28;20049;-38
2022/08/06 05:33:37;;;;;;;5.70;2.30;;;10.40;99.90;;;;;;5007494;28;20050;-38
2022/08/06 05:36:06;;;;;;;3.33;2.17;;;11.10;99.90;;;;;;5007490;28;20046;-38
2022/08/06 05:38:37;;;;;;;3.72;2.42;;;12.70;99.90;;;;;;5007124;28;20042;-38
2022/08/06 05:41:08;;;;;;;2.38;1.25;;;12.90;99.90;;;;;;5007079;28;20460;-39
2022/08/06 05:43:38;;;;;;;3.42;1.27;;;13.90;99.90;;;;;;5006815;28;20570;-38
2022/08/06 05:46:26;;;;;;;1.42;0.80;;;14.10;99.90;;;;;;5006918;28;20400;-39
2022/08/06 05:49:06;;;;;;;1.60;0.40;;;13.90;99.90;;;;;;5006482;28;20114;-39
2022/08/06 05:51:46;;;;;;;2.25;0.55;;;13.90;99.90;;;;;;5007174;28;20053;-39
2022/08/06 05:54:42;;;;;;;0.80;0.30;;;14.60;99.90;;;;;;5011084;28;20038;-39
2022/08/06 05:57:13;;;;;;;2.78;0.40;;;15.10;99.90;;;;;;5011122;28;20046;-39
2022/08/06 05:59:46;;;;;;;1.67;0.30;;;15.90;99.90;;;;;;5010976;28;20526;-39
2022/08/06 06:02:13;;;;;;;2.33;0.30;;;15.70;99.90;;;;;;5010950;28;20057;-39
2022/08/06 06:04:41;;;;;;;1.25;0.22;;;15.50;99.90;;;;;;5011054;28;20084;-39
2022/08/06 06:07:06;;;;;;;1.23;0.20;;;15.20;99.90;;;;;;5010870;28;20046;-39
2022/08/06 06:09:32;;;;;;;2.80;0.30;;;14.80;99.90;;;;;;5011036;28;20056;-39
2022/08/06 06:11:58;;;;;;;1.75;0.30;;;14.60;99.90;;;;;;5010491;28;20096;-39
2022/08/06 06:14:39;;;;;;;1.05;0.20;;;14.40;99.90;;;;;;5010660;28;20050;-39
2022/08/06 06:17:11;;;;;;;0.85;0.20;;;14.50;99.90;;;;;;5010315;28;20476;-39
2022/08/06 06:19:56;;;;;;;2.40;0.30;;;14.70;99.90;;;;;;5010142;28;20542;-39
2022/08/06 06:22:30;;;;;;;1.88;0.10;;;14.90;99.90;;;;;;5010460;28;20046;-39
2022/08/06 06:25:14;;;;;;;0.82;0.20;;;15.20;99.90;;;;;;5010154;28;20046;-39
2022/08/06 06:27:43;;;;;;;1.98;0.20;;;15.40;99.90;;;;;;5010411;28;20099;-39
2022/08/06 06:30:16;;;;;;;1.63;0.30;;;16.10;99.90;;;;;;5010141;28;20046;-39
2022/08/06 06:32:42;;;;;;;2.85;0.20;;;16.20;99.90;;;;;;5010203;28;20085;-39
2022/08/06 06:35:39;;;;;;;1.67;0.20;;;16.50;99.90;;;;;;5009790;28;20077;-39
2022/08/06 06:38:24;;;;;;;2.80;0.47;;;16.60;99.90;;;;;;5008485;28;20050;-39
2022/08/06 06:41:02;;;;;;;2.15;0.10;;;16.90;99.90;;;;;;5009829;28;20387;-39
2022/08/06 06:43:40;;;;;;;1.08;0.15;;;18.50;99.90;;;;;;5010012;28;20052;-39
2022/08/06 06:46:32;;;;;;;2.38;0.20;;;20.80;99.90;;;;;;5009368;28;20045;-39
2022/08/06 06:49:08;;;;;;;0.53;0.20;;;21.00;99.90;;;;;;5006507;28;20045;-39
2022/08/06 06:51:40;;;;;;;2.53;0.25;;;20.20;99.90;;;;;;5009908;28;20068;-39
2022/08/06 06:54:10;;;;;;;1.83;0.10;;;20.70;99.90;;;;;;5007911;28;20049;-39
2022/08/06 06:56:42;;;;;;;0.77;0.10;;;22.90;99.50;;;;;;5009383;28;20124;-39
2022/08/06 06:59:14;;;;;;;2.50;0.10;;;24.60;94.00;;;;;;5009119;28;20037;-39
2022/08/06 07:01:40;;;;;;;1.17;0.10;;;24.80;91.50;;;;;;5009236;28;20058;-39
2022/08/06 07:04:10;;;;;;;1.80;0.10;;;25.20;90.30;;;;;;5009035;28;20041;-39
2022/08/06 07:06:37;;;;;;;0.55;0.00;;;25.70;84.00;;;;;;5009200;28;20120;-39
2022/08/06 07:09:04;;;;;;;1.33;0.00;;;26.30;81.60;;;;;;5008783;28;20040;-39
2022/08/06 07:11:31;;;;;;;2.75;0.52;;;25.70;79.40;;;;;;5009523;28;20121;-39
2022/08/06 07:13:59;;;;;;;1.75;0.08;;;25.30;80.90;;;;;;5009612;28;20053;-39
2022/08/06 07:16:26;;;;;;;3.03;0.10;;;25.00;81.20;;;;;;5008741;28;20097;-39
2022/08/06 07:18:55;;;;;;;1.30;0.10;;;24.20;81.90;;;;;;5008958;28;20108;-39
2022/08/06 07:21:21;;;;;;;0.80;0.00;;;24.30;82.90;;;;;;5008759;28;20050;-39
2022/08/06 07:23:51;;;;;;;1.00;0.57;;;25.40;79.50;;;;;;5009235;28;20447;-39
2022/08/06 07:26:23;;;;;;;1.65;0.45;;;25.40;76.90;;;;;;5008859;28;20077;-39
2022/08/06 07:28:50;;;;;;;1.08;0.10;;;24.70;77.30;;;;;;5009257;28;20319;-39
2022/08/06 07:31:18;;;;;;;1.67;0.38;;;24.10;80.10;;;;;;5008825;28;20050;-40
2022/08/06 07:33:45;;;;;;;2.33;0.35;;;23.70;82.10;;;;;;5009471;28;20042;-40
2022/08/06 07:36:15;;;;;;;2.42;0.17;;;23.50;83.40;;;;;;5008421;28;20042;-39
2022/08/06 07:38:44;;;;;;;1.45;0.10;;;24.30;82.30;;;;;;5007655;28;20049;-39
2022/08/06 07:41:12;;;;;;;0.98;0.10;;;26.00;75.90;;;;;;5008395;28;20069;-39
2022/08/06 07:43:52;;;;;;;3.10;0.10;;;27.10;71.90;;;;;;5008153;28;20046;-39
2022/08/06 07:46:22;;;;;;;1.60;0.10;;;28.20;67.90;;;;;;5008335;28;20045;-38
2022/08/06 07:48:55;;;;;;;1.30;0.10;;;29.60;64.80;;;;;;5008399;28;20069;-37
2022/08/06 07:51:25;;;;;;;1.48;0.15;;;31.10;62.40;;;;;;5023087;28;20042;-38
2022/08/06 07:53:52;;;;;;;2.25;0.10;;;32.50;59.00;;;;;;5008566;28;20053;-38
2022/08/06 07:56:18;;;;;;;1.27;0.05;;;33.60;55.30;;;;;;5007497;28;20096;-38
2022/08/06 07:58:45;;;;;;;4.13;0.20;;;34.40;54.20;;;;;;5008355;28;20108;-38
2022/08/06 08:01:12;;;;;;;1.75;0.00;;;35.30;52.70;;;;;;5007805;28;20153;-38
2022/08/06 08:06:24;;;;;;;1.15;0.10;;;35.80;49.10;;;;;;5007809;28;20124;-38
2022/08/06 08:09:02;;;;;;;1.85;0.10;;;33.90;48.70;;;;;;5007937;28;20045;-38
2022/08/06 08:11:30;;;;;;;1.08;0.10;;;32.00;50.10;;;;;;5007951;28;20033;-37
2022/08/06 08:13:58;;;;;;;1.88;0.20;;;31.90;51.70;;;;;;5007892;28;20045;-37
2022/08/06 08:16:26;;;;;;;1.05;0.20;;;32.70;51.00;;;;;;5007122;28;20058;-38
2022/08/06 08:18:52;;;;;;;1.20;0.08;;;31.80;50.40;;;;;;5007688;28;20054;-37
2022/08/06 08:21:19;;;;;;;2.25;0.20;;;30.50;50.90;;;;;;5007312;28;20048;-38
2022/08/06 08:23:46;;;;;;;0.80;0.10;;;31.40;50.90;;;;;;5007600;28;20482;-37
2022/08/06 08:26:12;;;;;;;1.83;0.10;;;32.70;50.80;;;;;;5007015;28;20046;-37
2022/08/06 08:28:38;;;;;;;2.83;0.10;;;33.00;49.60;;;;;;5007603;28;20096;-37
2022/08/06 08:31:05;;;;;;;2.95;0.20;;;32.00;49.10;;;;;;5007511;28;20045;-37
2022/08/06 08:33:32;;;;;;;0.50;0.00;;;32.30;49.10;;;;;;5007711;28;20535;-37
2022/08/06 08:35:58;;;;;;;0.47;0.00;;;33.20;48.50;;;;;;5008049;28;20037;-37
2022/08/06 08:38:24;;;;;;;2.30;0.10;;;33.20;47.70;;;;;;5007710;28;20545;-38
2022/08/06 08:40:51;;;;;;;2.15;0.00;;;32.50;47.80;;;;;;5007665;28;20057;-37
2022/08/06 08:43:29;;;;;;;1.58;0.00;;;31.30;49.50;;;;;;5007443;28;20139;-37
2022/08/06 08:45:57;;;;;;;1.05;0.10;;;31.30;50.20;;;;;;5007733;28;20056;-37
2022/08/06 08:48:28;;;;;;;0.95;0.10;;;30.90;50.80;;;;;;5007092;28;20117;-38
2022/08/06 08:50:56;;;;;;;2.50;0.07;;;30.00;50.80;;;;;;5007363;28;20518;-37
2022/08/06 08:53:52;;;;;;;4.53;0.28;;;28.80;51.90;;;;;;5007163;28;20053;-37
2022/08/06 08:56:18;;;;;;;0.88;0.10;;;27.80;53.90;;;;;;5006282;28;20173;-37
2022/08/06 08:58:44;;;;;;;1.85;0.10;;;28.90;54.70;;;;;;5007216;28;20134;-38
2022/08/06 09:01:11;;;;;;;3.50;0.50;;;29.60;53.50;;;;;;5006744;28;20065;-38
2022/08/06 09:03:39;;;;;;;2.00;0.30;;;29.00;51.90;;;;;;5005277;28;20108;-38
2022/08/06 09:06:05;;;;;;;2.30;0.10;;;28.30;52.60;;;;;;5007288;28;20045;-38
2022/08/06 09:08:31;;;;;;;2.67;0.20;;;27.60;54.30;;;;;;5006541;28;20511;-38
2022/08/06 09:10:59;;;;;;;2.78;0.10;;;26.90;55.70;;;;;;5007127;28;20056;-37
2022/08/06 09:13:26;;;;;;;3.33;0.43;;;26.30;57.20;;;;;;5006581;28;20107;-37
2022/08/06 09:15:53;;;;;;;1.25;0.17;;;25.70;58.20;;;;;;5006472;28;20072;-37
2022/08/06 09:18:20;;;;;;;3.42;0.10;;;25.10;59.30;;;;;;5002476;28;20080;-38
2022/08/06 09:20:47;;;;;;;1.77;0.10;;;24.40;60.10;;;;;;5005958;28;20085;-38
2022/08/06 09:23:15;;;;;;;0.95;0.10;;;23.90;61.50;;;;;;5005872;28;20042;-38
2022/08/06 09:25:52;;;;;;;2.53;0.10;;;23.30;62.40;;;;;;5006051;28;20488;-38
2022/08/06 09:28:39;;;;;;;1.90;0.55;;;22.90;64.00;;;;;;5005291;28;20887;-38
2022/08/06 09:31:06;;;;;;;1.48;0.20;;;22.60;65.60;;;;;;5006893;28;20510;-38
2022/08/06 09:33:34;;;;;;;1.10;0.20;;;22.30;66.20;;;;;;5005441;28;20442;-38
2022/08/06 09:36:03;;;;;;;4.63;1.10;;;22.20;66.80;;;;;;5006497;28;20046;-39
2022/08/06 09:38:29;;;;;;;3.08;0.20;;;22.20;67.20;;;;;;5006206;28;20136;-37
2022/08/06 09:41:11;;;;;;;2.00;0.30;;;22.70;67.40;;;;;;5006349;28;20041;-38
2022/08/06 09:43:38;;;;;;;1.00;0.30;;;23.70;66.30;;;;;;5006183;28;20037;-38
2022/08/06 09:46:06;;;;;;;1.40;0.20;;;24.50;63.40;;;;;;5006679;28;20088;-38
2022/08/06 09:48:32;;;;;;;1.67;0.20;;;25.10;61.20;;;;;;5006492;28;20053;-38
2022/08/06 09:50:58;;;;;;;1.77;0.40;;;25.90;60.10;;;;;;5006936;28;20046;-38
2022/08/06 09:53:24;;;;;;;2.65;0.50;;;28.00;58.40;;;;;;5006040;28;20053;-40
2022/08/06 09:55:51;;;;;;;0.88;0.13;;;30.40;55.80;;;;;;5004631;28;20470;-40
2022/08/06 09:58:37;;;;;;;2.90;0.20;;;31.60;52.10;;;;;;5006529;28;20402;-38
2022/08/06 10:01:42;;;;;;;2.20;0.43;;;31.60;50.70;;;;;;5006654;28;20042;-41
2022/08/06 10:04:23;;;;;;;3.00;0.20;;;31.20;50.10;;;;;;4985099;28;20133;-38
2022/08/06 10:06:57;;;;;;;1.42;0.32;;;30.30;49.10;;;;;;5003066;28;20046;-38
2022/08/06 10:09:24;;;;;;;0.80;0.20;;;29.50;50.50;;;;;;5002809;28;20124;-41
2022/08/06 10:11:50;;;;;;;5.28;0.30;;;28.60;51.50;;;;;;5001987;28;20100;-40
2022/08/06 10:14:33;;;;;;;3.17;0.40;;;27.90;52.90;;;;;;5003493;28;20050;-44
2022/08/06 10:17:20;;;;;;;2.25;0.20;;;27.20;54.20;;;;;;5003634;28;20480;-41
2022/08/06 10:20:03;;;;;;;1.98;0.10;;;26.60;55.50;;;;;;5003304;28;20490;-39
2022/08/06 10:22:29;;;;;;;3.13;0.17;;;26.00;57.00;;;;;;5002718;28;20060;-38
2022/08/06 10:24:56;;;;;;;2.88;0.65;;;25.70;57.90;;;;;;5003814;28;20511;-39
2022/08/06 10:27:25;;;;;;;3.40;0.20;;;25.40;59.00;;;;;;5003531;28;20463;-38
2022/08/06 10:29:54;;;;;;;1.27;0.17;;;25.20;59.40;;;;;;5002804;28;20115;-38
2022/08/06 10:32:31;;;;;;;4.43;0.47;;;25.30;59.70;;;;;;5002717;28;20045;-38
2022/08/06 10:35:00;;;;;;;3.72;0.20;;;25.40;59.50;;;;;;5003120;28;20050;-38
2022/08/06 10:37:26;;;;;;;2.95;0.28;;;25.40;59.30;;;;;;5001771;28;20057;-38
2022/08/06 10:39:56;;;;;;;3.50;0.20;;;25.30;59.40;;;;;;5005266;28;20042;-38
2022/08/06 10:42:23;;;;;;;1.20;0.15;;;25.20;58.90;;;;;;5006574;28;20384;-37
2022/08/06 10:44:50;;;;;;;2.90;0.30;;;25.20;59.50;;;;;;5006905;28;20038;-38
2022/08/06 10:47:17;;;;;;;0.80;0.20;;;25.30;59.30;;;;;;5005515;28;20045;-38
2022/08/06 10:49:44;;;;;;;1.35;0.30;;;25.20;59.20;;;;;;5005646;28;20050;-38
2022/08/06 10:52:12;;;;;;;3.78;0.80;;;25.10;59.40;;;;;;5007019;28;20451;-37
2022/08/06 10:54:40;;;;;;;1.83;0.25;;;25.00;60.10;;;;;;5004809;28;20049;-38
2022/08/06 10:57:08;;;;;;;1.95;0.50;;;24.70;59.90;;;;;;5006552;28;20041;-38
2022/08/06 10:59:34;;;;;;;2.75;0.17;;;24.40;60.20;;;;;;5006580;28;20213;-38
2022/08/06 11:02:25;;;;;;;2.63;0.43;;;24.10;60.80;;;;;;5006543;28;20042;-38
2022/08/06 11:04:59;;;;;;;1.17;0.10;;;23.80;60.20;;;;;;4981023;28;20462;-38
2022/08/06 11:07:48;;;;;;;2.00;0.35;;;23.40;60.30;;;;;;5006339;28;20053;-38
2022/08/06 11:10:52;;;;;;;1.30;0.30;;;23.40;62.10;;;;;;5006694;28;20440;-38
2022/08/06 11:13:23;;;;;;;3.47;0.20;;;23.40;63.10;;;;;;5006710;28;20152;-38
2022/08/06 11:15:50;;;;;;;2.97;0.20;;;23.30;63.50;;;;;;5006189;28;20535;-38
2022/08/06 11:18:17;;;;;;;2.00;0.20;;;23.10;62.70;;;;;;5006776;28;20046;-38
2022/08/06 11:20:47;;;;;;;2.25;0.22;;;23.00;64.90;;;;;;5007167;28;20452;-38
2022/08/06 11:23:13;;;;;;;3.08;0.30;;;23.00;66.60;;;;;;5006945;28;20067;-37
2022/08/06 11:25:50;;;;;;;1.90;0.50;;;23.20;67.70;;;;;;5006366;28;20049;-37
2022/08/06 11:28:40;;;;;;;2.45;0.45;;;23.50;66.90;;;;;;5006128;28;20112;-37
2022/08/06 11:31:07;;;;;;;1.98;0.30;;;23.60;69.50;;;;;;5005400;28;20072;-38
2022/08/06 11:33:33;;;;;;;2.70;0.47;;;23.60;69.70;;;;;;5005213;28;20560;-37
2022/08/06 11:36:01;;;;;;;4.22;0.57;;;23.70;69.80;;;;;;5005887;28;20060;-38
2022/08/06 11:38:48;;;;;;;2.75;0.82;;;23.60;70.50;;;;;;5006400;28;20041;-38
2022/08/06 11:41:21;;;;;;;1.40;0.30;;;23.70;69.90;;;;;;5005827;28;20060;-38
2022/08/06 11:43:53;;;;;;;2.22;0.65;;;23.60;71.70;;;;;;5005183;28;20108;-38
2022/08/06 11:46:30;;;;;;;2.63;0.50;;;23.80;73.20;;;;;;5005418;28;20042;-38
2022/08/06 11:48:59;;;;;;;2.97;0.30;;;24.00;72.50;;;;;;5005205;28;20045;-39
2022/08/06 11:51:42;;;;;;;1.88;0.63;;;24.30;76.00;;;;;;5005017;28;20081;-38
2022/08/06 11:54:23;;;;;;;2.15;0.45;;;24.50;75.40;;;;;;5004251;28;20119;-38
2022/08/06 11:57:01;;;;;;;4.25;0.50;;;24.60;69.40;;;;;;5006270;28;20049;-38
2022/08/06 11:59:54;;;;;;;4.63;0.50;;;24.50;69.10;;;;;;5006430;28;20392;-38
2022/08/06 12:02:50;;;;;;;5.85;0.95;;;24.60;65.80;;;;;;5006083;28;20076;-38
2022/08/06 12:05:15;;;;;;;3.72;0.68;;;24.50;67.30;;;;;;4985491;28;20137;-39
2022/08/06 12:07:49;;;;;;;1.73;0.40;;;24.60;66.80;;;;;;5006275;28;20480;-38
2022/08/06 12:10:16;;;;;;;2.13;0.40;;;24.60;68.10;;;;;;5006428;28;20041;-38
2022/08/06 12:12:45;;;;;;;3.42;0.65;;;24.50;65.50;;;;;;5005869;28;20547;-38
2022/08/06 12:15:16;;;;;;;2.67;0.50;;;24.30;67.10;;;;;;5006124;28;20081;-38
2022/08/06 12:17:55;;;;;;;2.63;0.40;;;24.10;67.10;;;;;;5005851;28;20089;-38
2022/08/06 12:20:49;;;;;;;1.83;0.32;;;23.80;70.60;;;;;;5005629;28;20089;-38
2022/08/06 12:23:16;;;;;;;4.45;0.77;;;23.70;70.80;;;;;;5004870;28;20061;-38
2022/08/06 12:25:47;;;;;;;6.50;1.63;;;23.60;72.20;;;;;;5005405;28;20050;-38
2022/08/06 12:28:15;;;;;;;1.55;0.70;;;23.90;72.80;;;;;;5005875;28;20484;-38
2022/08/06 12:30:46;;;;;;;4.80;0.73;;;24.10;73.70;;;;;;5006208;28;20052;-38
2022/08/06 12:33:13;;;;;;;1.33;0.57;;;24.10;72.10;;;;;;5005864;28;20045;-38
2022/08/06 12:35:53;;;;;;;1.98;0.38;;;24.20;73.80;;;;;;5005593;28;20049;-38
2022/08/06 12:38:22;;;;;;;3.65;0.75;;;24.00;74.20;;;;;;5005272;28;20052;-38
2022/08/06 12:41:06;;;;;;;4.05;0.60;;;23.90;74.30;;;;;;5004667;28;20052;-38
2022/08/06 12:43:34;;;;;;;2.03;0.63;;;23.90;72.30;;;;;;5004568;28;20046;-38
2022/08/06 12:46:07;;;;;;;1.85;0.80;;;23.60;74.10;;;;;;5005348;28;20045;-38
2022/08/06 12:48:35;;;;;;;4.80;1.33;;;23.70;74.30;;;;;;5005028;28;20157;-38
2022/08/06 12:51:02;;;;;;;6.13;0.98;;;23.30;75.50;;;;;;5004604;28;20053;-38
2022/08/06 12:53:28;;;;;;;4.50;0.90;;;23.40;75.30;;;;;;5005250;28;20081;-38
2022/08/06 12:55:55;;;;;;;4.72;0.75;;;23.30;73.00;;;;;;5004912;28;20141;-38
2022/08/06 12:58:37;;;;;;;3.88;1.23;;;23.30;74.20;;;;;;5004923;28;20096;-38
2022/08/06 13:01:06;;;;;;;5.85;0.85;;;23.20;72.80;;;;;;5004777;28;20054;-38
2022/08/06 13:03:34;;;;;;;6.88;1.17;;;23.20;75.00;;;;;;4986236;28;20049;-38
2022/08/06 13:06:02;;;;;;;3.55;1.05;;;23.20;74.40;;;;;;5005264;28;20129;-38
2022/08/06 13:08:29;;;;;;;2.08;0.80;;;23.30;75.00;;;;;;5004693;28;20049;-38
2022/08/06 13:10:56;;;;;;;3.28;1.70;;;23.50;75.60;;;;;;5004368;28;20045;-38
2022/08/06 13:13:40;;;;;;;1.70;0.60;;;23.70;75.40;;;;;;5004517;28;20809;-38